Time;durP1;ratioP1;P1;durP2;ratioP2;P2;SDS_P1;SDS_P2;PMS_P1;PMS_P2;Temp;Humidity;BMP_temperature;BMP_pressure;BME280_temperature;BME280_humidity;BME280_pressure;Samples;Min_cycle;Max_cycle;Signal;HPM_P1;HPM_P2
2023/10/25 00:01:13;;;;;;;7.40;7.10;;;13.50;44.70;;;;;;6159481;23;20160;-79
2023/10/25 00:03:39;;;;;;;7.77;7.33;;;13.50;43.40;;;;;;6185728;23;20155;-77
2023/10/25 00:06:05;;;;;;;8.00;7.67;;;13.30;44.50;;;;;;6185888;23;20599;-75
2023/10/25 00:08:31;;;;;;;7.50;7.20;;;13.30;44.50;;;;;;6159940;23;20462;-76
2023/10/25 00:11:05;;;;;;;8.33;7.90;;;13.30;44.60;;;;;;6186165;23;20403;-75
2023/10/25 00:13:31;;;;;;;7.20;6.90;;;13.40;44.60;;;;;;6186894;23;20161;-76
2023/10/25 00:15:57;;;;;;;7.53;7.23;;;13.50;44.20;;;;;;6186480;23;20896;-76
2023/10/25 00:18:24;;;;;;;7.60;7.30;;;13.60;43.60;;;;;;6186247;23;20384;-77
2023/10/25 00:20:50;;;;;;;7.23;7.03;;;13.70;43.10;;;;;;6159823;23;20163;-77
2023/10/25 00:23:16;;;;;;;7.77;7.47;;;13.80;42.50;;;;;;6159614;23;20424;-76
2023/10/25 00:25:41;;;;;;;7.33;6.93;;;13.80;42.00;;;;;;6159041;23;20847;-74
2023/10/25 00:28:07;;;;;;;7.80;7.50;;;13.90;41.80;;;;;;6159248;23;20161;-76
2023/10/25 00:30:32;;;;;;;7.77;7.33;;;13.90;41.50;;;;;;6185416;23;20364;-76
2023/10/25 00:32:58;;;;;;;8.17;7.77;;;13.90;41.20;;;;;;6186012;23;20153;-76
2023/10/25 00:35:23;;;;;;;7.80;7.40;;;13.80;41.20;;;;;;6185297;23;20153;-75
2023/10/25 00:37:49;;;;;;;8.57;8.17;;;13.80;41.40;;;;;;6185505;23;20156;-75
2023/10/25 00:40:14;;;;;;;8.60;8.20;;;13.90;41.60;;;;;;6185408;23;20148;-76
2023/10/25 00:42:40;;;;;;;8.13;7.70;;;13.90;41.40;;;;;;6185654;23;20180;-76
2023/10/25 00:45:06;;;;;;;8.27;7.87;;;14.00;41.30;;;;;;6184799;23;20481;-76
2023/10/25 00:47:31;;;;;;;8.60;8.27;;;13.90;41.20;;;;;;6184745;23;20169;-75
2023/10/25 00:49:57;;;;;;;8.70;8.30;;;13.90;41.00;;;;;;6185857;23;20732;-75
2023/10/25 00:52:23;;;;;;;8.60;8.20;;;13.90;41.00;;;;;;6186911;23;20153;-77
2023/10/25 00:54:49;;;;;;;8.60;8.10;;;13.90;41.30;;;;;;6159751;23;20184;-77
2023/10/25 00:57:16;;;;;;;9.37;8.90;;;13.90;41.00;;;;;;6159932;23;20924;-77
2023/10/25 00:59:42;;;;;;;9.03;8.57;;;13.90;41.30;;;;;;6160065;23;20467;-78
2023/10/25 01:02:07;;;;;;;9.03;8.63;;;13.90;41.40;;;;;;6186954;23;20936;-78
2023/10/25 01:04:34;;;;;;;8.53;8.23;;;13.90;41.20;;;;;;6186762;23;20372;-77
2023/10/25 01:06:59;;;;;;;9.63;9.20;;;13.90;41.20;;;;;;6159969;23;20224;-78
2023/10/25 01:09:25;;;;;;;8.50;8.13;;;13.90;41.20;;;;;;6186280;23;20373;-77
2023/10/25 01:11:51;;;;;;;9.53;9.13;;;13.90;41.00;;;;;;6186780;23;20160;-78
2023/10/25 01:14:17;;;;;;;8.37;7.87;;;13.90;40.40;;;;;;6160298;23;20392;-77
2023/10/25 01:16:42;;;;;;;9.00;8.70;;;13.70;40.40;;;;;;6186858;23;20175;-76
2023/10/25 01:19:08;;;;;;;8.73;8.33;;;13.40;42.10;;;;;;6186506;23;20156;-78
2023/10/25 01:21:34;;;;;;;8.53;8.23;;;13.30;42.80;;;;;;6160766;23;20177;-77
2023/10/25 01:23:59;;;;;;;8.93;8.63;;;13.10;44.40;;;;;;6189121;23;20704;-77
2023/10/25 01:26:25;;;;;;;8.60;8.20;;;12.90;44.80;;;;;;6162247;23;20208;-77
2023/10/25 01:28:50;;;;;;;9.10;8.50;;;12.70;45.50;;;;;;6187924;23;20145;-77
2023/10/25 01:31:16;;;;;;;8.67;8.37;;;12.80;47.10;;;;;;6188267;23;20152;-76
2023/10/25 01:33:41;;;;;;;9.03;8.70;;;12.70;45.40;;;;;;6188351;23;20179;-77
2023/10/25 01:36:07;;;;;;;9.30;8.90;;;12.80;45.40;;;;;;6188397;23;20188;-77
2023/10/25 01:38:32;;;;;;;8.53;7.83;;;12.80;46.10;;;;;;6188487;23;20671;-78
2023/10/25 01:40:58;;;;;;;9.50;8.90;;;13.00;46.00;;;;;;6188822;23;20218;-78
2023/10/25 01:43:24;;;;;;;8.47;8.17;;;13.10;45.30;;;;;;6162112;23;20192;-78
2023/10/25 01:45:50;;;;;;;8.30;7.90;;;13.20;44.40;;;;;;6161517;23;20173;-78
2023/10/25 01:48:27;;;;;;;8.23;7.93;;;13.30;43.70;;;;;;6187973;23;20386;-78
2023/10/25 01:50:53;;;;;;;9.53;9.10;;;13.40;42.50;;;;;;6187496;23;20160;-77
2023/10/25 01:53:18;;;;;;;9.00;8.50;;;13.40;42.10;;;;;;6188177;23;20387;-78
2023/10/25 01:55:44;;;;;;;7.80;7.43;;;13.40;41.80;;;;;;6161934;23;20168;-78
2023/10/25 01:58:09;;;;;;;8.63;8.23;;;13.50;41.50;;;;;;6188381;23;20220;-77
2023/10/25 02:00:38;;;;;;;9.10;8.70;;;13.50;41.10;;;;;;6162024;23;20168;-77
2023/10/25 02:03:03;;;;;;;8.80;8.40;;;13.60;40.80;;;;;;6188608;23;20219;-77
2023/10/25 02:05:29;;;;;;;8.63;8.23;;;13.60;40.50;;;;;;6187597;23;20377;-77
2023/10/25 02:07:54;;;;;;;8.93;8.63;;;13.60;40.40;;;;;;6187699;23;20441;-77
2023/10/25 02:10:20;;;;;;;9.47;9.07;;;13.60;40.50;;;;;;6161685;23;20148;-78
2023/10/25 02:12:45;;;;;;;8.77;8.27;;;13.60;40.00;;;;;;6161539;23;20661;-76
2023/10/25 02:15:11;;;;;;;8.30;8.00;;;13.60;40.00;;;;;;6188209;23;20617;-76
2023/10/25 02:17:37;;;;;;;8.33;8.03;;;13.60;39.80;;;;;;6161727;23;20180;-77
2023/10/25 02:20:02;;;;;;;8.33;8.00;;;13.60;39.60;;;;;;6163344;23;20172;-76
2023/10/25 02:22:28;;;;;;;9.77;9.37;;;13.60;39.10;;;;;;6191115;23;20191;-77
2023/10/25 02:24:54;;;;;;;8.83;8.43;;;13.70;39.20;;;;;;6189164;23;20230;-78
2023/10/25 02:27:19;;;;;;;8.70;8.40;;;13.70;39.00;;;;;;6187951;23;20165;-79
2023/10/25 02:29:45;;;;;;;8.60;8.30;;;13.70;38.90;;;;;;6187613;23;20523;-78
2023/10/25 02:32:10;;;;;;;9.50;9.00;;;13.70;38.70;;;;;;6187659;23;20224;-78
2023/10/25 02:34:36;;;;;;;9.13;8.77;;;13.70;38.60;;;;;;6188224;23;20534;-78
2023/10/25 14:43:15;;;;;;;7.13;6.83;;;15.90;29.50;;;;;;6156013;23;20455;-77
2023/10/25 14:45:41;;;;;;;7.60;7.33;;;16.00;30.10;;;;;;6159653;23;20423;-78
2023/10/25 14:48:12;;;;;;;6.70;6.50;;;15.90;30.10;;;;;;6162681;23;20279;-77
2023/10/25 14:50:38;;;;;;;7.67;7.47;;;15.90;30.50;;;;;;6190604;23;20218;-78
2023/10/25 14:53:04;;;;;;;6.83;6.60;;;15.90;30.50;;;;;;6190620;23;20360;-78
2023/10/25 14:55:35;;;;;;;7.03;6.83;;;15.90;30.80;;;;;;6191214;23;20403;-78
2023/10/25 14:58:01;;;;;;;7.50;7.20;;;15.90;31.30;;;;;;6200979;23;20385;-77
2023/10/25 15:00:26;;;;;;;8.27;7.97;;;15.80;31.40;;;;;;6180338;23;20427;-77
2023/10/25 15:02:52;;;;;;;7.70;7.30;;;15.70;31.50;;;;;;6204168;23;20204;-77
2023/10/25 15:05:18;;;;;;;7.27;7.07;;;15.70;32.00;;;;;;6167015;23;20153;-77
2023/10/25 15:07:47;;;;;;;8.23;7.83;;;15.60;32.00;;;;;;6171127;23;20231;-77
2023/10/25 15:10:12;;;;;;;8.27;7.97;;;15.60;32.30;;;;;;6197108;23;20850;-77
2023/10/25 15:12:40;;;;;;;8.50;8.17;;;15.50;32.40;;;;;;6165013;23;20406;-78
2023/10/25 15:15:07;;;;;;;8.60;8.17;;;15.50;32.60;;;;;;6160288;23;20156;-76
2023/10/25 15:17:33;;;;;;;7.50;7.20;;;15.50;32.50;;;;;;6186952;23;20396;-78
2023/10/25 15:19:58;;;;;;;8.20;7.80;;;15.60;32.10;;;;;;6186946;23;20886;-77
2023/10/25 15:22:24;;;;;;;8.70;8.40;;;15.50;32.00;;;;;;6182435;23;20184;-75
2023/10/25 15:24:49;;;;;;;7.33;7.13;;;15.50;32.80;;;;;;6183440;23;20211;-77
2023/10/25 15:27:17;;;;;;;7.00;6.53;;;15.50;31.90;;;;;;6183952;23;20220;-76
2023/10/25 15:29:51;;;;;;;7.17;6.90;;;15.50;32.60;;;;;;6184216;23;20184;-77
2023/10/25 15:32:17;;;;;;;7.97;7.47;;;15.40;34.30;;;;;;6184137;23;20822;-76
2023/10/25 15:34:42;;;;;;;7.00;6.70;;;15.40;36.50;;;;;;6182972;23;20526;-76
2023/10/25 15:37:08;;;;;;;7.63;7.13;;;15.10;39.00;;;;;;6156611;23;20207;-76
2023/10/25 15:39:34;;;;;;;5.87;5.67;;;14.90;42.30;;;;;;6182492;23;20528;-76
2023/10/25 15:42:00;;;;;;;6.20;5.90;;;14.70;43.50;;;;;;6183703;23;20615;-76
2023/10/25 15:44:25;;;;;;;5.80;5.43;;;14.50;45.60;;;;;;6157832;23;20414;-76
2023/10/25 15:46:51;;;;;;;5.40;5.10;;;14.40;45.50;;;;;;6183654;23;20239;-76
2023/10/25 15:49:16;;;;;;;5.10;4.90;;;14.30;47.40;;;;;;6157172;23;20153;-76
2023/10/25 15:51:42;;;;;;;5.47;5.27;;;14.30;47.30;;;;;;6184142;23;20223;-76
2023/10/25 15:54:08;;;;;;;6.07;5.80;;;14.20;45.30;;;;;;6184373;23;20145;-76
2023/10/25 15:56:33;;;;;;;5.23;5.03;;;14.20;47.10;;;;;;6183707;23;20176;-76
2023/10/25 15:58:59;;;;;;;6.47;6.07;;;14.10;46.50;;;;;;6183568;23;20144;-76
2023/10/25 16:01:25;;;;;;;5.97;5.67;;;14.00;48.80;;;;;;6183950;23;20152;-76
2023/10/25 16:03:51;;;;;;;5.43;5.10;;;13.90;49.70;;;;;;6183936;23;20176;-76
2023/10/25 16:06:17;;;;;;;5.43;5.00;;;13.90;50.40;;;;;;6183974;23;20144;-76
2023/10/25 16:08:43;;;;;;;4.57;4.30;;;13.90;51.90;;;;;;6183628;23;20380;-77
2023/10/25 16:11:09;;;;;;;4.90;4.60;;;13.80;51.60;;;;;;6183948;23;20491;-76
2023/10/25 16:13:35;;;;;;;4.90;4.70;;;13.80;52.10;;;;;;6183685;23;20149;-76
2023/10/25 16:16:03;;;;;;;4.80;4.60;;;13.70;52.40;;;;;;6184183;23;20418;-76
2023/10/25 16:18:29;;;;;;;5.47;5.17;;;13.70;52.30;;;;;;6183408;23;20380;-75
2023/10/25 16:20:55;;;;;;;6.10;5.70;;;13.70;52.10;;;;;;6183368;23;20407;-76
2023/10/25 16:23:20;;;;;;;5.70;5.50;;;13.80;51.90;;;;;;6183562;23;20484;-76
2023/10/25 16:25:46;;;;;;;5.53;5.33;;;13.70;51.30;;;;;;6183592;23;20145;-75
2023/10/25 16:28:12;;;;;;;5.00;4.60;;;13.80;53.10;;;;;;6183538;23;20199;-75
2023/10/25 16:30:37;;;;;;;5.03;4.83;;;13.80;53.00;;;;;;6183479;23;20644;-75
2023/10/25 16:33:05;;;;;;;5.03;4.83;;;13.80;53.90;;;;;;6183395;23;20156;-77
2023/10/25 16:35:32;;;;;;;5.00;4.80;;;13.80;53.20;;;;;;6183841;23;20156;-76
2023/10/25 16:37:57;;;;;;;5.40;5.20;;;13.80;51.80;;;;;;6183428;23;20738;-76
2023/10/25 16:40:23;;;;;;;5.30;5.10;;;13.70;51.60;;;;;;6183755;23;20372;-75
2023/10/25 16:42:48;;;;;;;5.07;4.87;;;13.70;51.20;;;;;;6183641;23;20235;-77
2023/10/25 16:45:14;;;;;;;4.60;4.40;;;13.70;50.50;;;;;;6183930;23;20227;-75
2023/10/25 16:47:39;;;;;;;4.73;4.53;;;13.60;49.80;;;;;;6183455;23;20175;-77
2023/10/25 16:50:06;;;;;;;4.00;3.90;;;13.60;50.40;;;;;;6183573;23;20495;-76
2023/10/25 16:52:32;;;;;;;5.67;5.37;;;13.60;51.20;;;;;;6184476;23;20489;-75
2023/10/25 16:54:58;;;;;;;5.53;5.13;;;13.60;51.70;;;;;;6185962;23;20365;-75
2023/10/25 16:57:24;;;;;;;4.50;4.30;;;13.60;52.60;;;;;;6158942;23;20420;-75
2023/10/25 16:59:50;;;;;;;4.90;4.70;;;13.60;52.00;;;;;;6185067;23;20418;-75
2023/10/25 17:02:15;;;;;;;4.80;4.50;;;13.60;52.50;;;;;;6185697;23;20885;-75
2023/10/25 17:04:41;;;;;;;4.40;4.30;;;13.60;53.20;;;;;;6185837;23;20157;-75
2023/10/25 17:07:07;;;;;;;4.70;4.47;;;13.60;53.60;;;;;;6159254;23;20181;-76
2023/10/25 17:09:33;;;;;;;3.97;3.87;;;13.60;54.50;;;;;;6159455;23;20157;-76
2023/10/25 17:11:58;;;;;;;4.17;3.97;;;13.50;55.50;;;;;;6186247;23;20746;-76
2023/10/25 17:14:24;;;;;;;5.00;4.60;;;13.50;56.50;;;;;;6186584;23;20842;-76
2023/10/25 17:16:50;;;;;;;4.20;4.00;;;13.60;57.80;;;;;;6186722;23;20179;-76
2023/10/25 17:19:15;;;;;;;5.20;4.90;;;13.60;59.60;;;;;;6159998;23;20815;-76
2023/10/25 17:21:41;;;;;;;6.17;5.87;;;13.30;45.70;;;;;;6185749;23;20163;-76
2023/10/25 17:24:09;;;;;;;6.47;6.17;;;13.00;46.50;;;;;;6185541;23;20168;-76
2023/10/25 17:26:35;;;;;;;5.87;5.67;;;12.80;42.90;;;;;;6183433;23;20619;-76
2023/10/25 17:29:01;;;;;;;5.33;5.10;;;12.80;39.40;;;;;;6157834;23;20390;-76
2023/10/25 17:31:29;;;;;;;5.80;5.50;;;12.80;41.50;;;;;;6184220;23;20513;-76
2023/10/25 17:33:55;;;;;;;5.73;5.53;;;12.90;39.40;;;;;;6185204;23;20151;-76
2023/10/25 17:36:20;;;;;;;5.60;5.30;;;12.90;40.40;;;;;;6158935;23;20400;-76
2023/10/25 17:38:46;;;;;;;5.40;5.20;;;12.90;41.10;;;;;;6184915;23;20591;-76
2023/10/25 17:41:11;;;;;;;5.70;5.50;;;13.00;38.70;;;;;;6185668;23;20176;-77
2023/10/25 17:43:37;;;;;;;5.23;5.03;;;13.00;38.30;;;;;;6185873;23;20188;-77
2023/10/25 17:46:03;;;;;;;6.00;5.80;;;13.00;38.20;;;;;;6185272;23;20153;-76
2023/10/25 17:48:28;;;;;;;6.00;5.70;;;13.00;39.20;;;;;;6186231;23;20141;-78
2023/10/25 17:50:54;;;;;;;6.20;5.90;;;13.00;39.10;;;;;;6159917;23;20152;-78
2023/10/25 17:53:20;;;;;;;5.30;5.10;;;13.00;39.60;;;;;;6185881;23;20153;-78
2023/10/25 17:55:45;;;;;;;6.70;6.37;;;13.00;40.50;;;;;;6185341;23;20482;-78
2023/10/25 17:58:12;;;;;;;5.33;5.03;;;13.00;41.50;;;;;;6185249;23;20183;-77
2023/10/25 18:00:42;;;;;;;5.57;5.27;;;13.00;42.30;;;;;;6183914;23;20618;-77
2023/10/25 18:03:07;;;;;;;5.47;5.27;;;13.00;43.30;;;;;;6185178;23;20459;-77
2023/10/25 18:05:38;;;;;;;5.40;5.00;;;13.00;44.20;;;;;;6188439;23;20380;-78
2023/10/25 18:08:05;;;;;;;5.40;5.20;;;13.00;44.20;;;;;;6189061;23;20169;-78
2023/10/25 18:10:30;;;;;;;5.70;5.40;;;13.00;44.20;;;;;;6189050;23;20368;-77
2023/10/25 18:12:56;;;;;;;4.70;4.50;;;13.10;44.80;;;;;;6186647;23;20404;-78
2023/10/25 18:15:21;;;;;;;5.57;5.37;;;13.20;46.10;;;;;;6188506;23;20153;-78
2023/10/25 18:17:47;;;;;;;5.60;5.30;;;13.20;45.80;;;;;;6186130;23;20173;-77
2023/10/25 18:20:13;;;;;;;5.80;5.50;;;13.20;46.30;;;;;;6184914;23;20191;-77
2023/10/25 18:22:38;;;;;;;5.40;5.10;;;13.20;46.90;;;;;;6184878;23;20179;-77
2023/10/25 18:25:05;;;;;;;4.77;4.47;;;13.20;47.90;;;;;;6184981;23;20464;-77
2023/10/25 18:27:36;;;;;;;4.77;4.57;;;13.20;48.70;;;;;;6184729;23;20169;-77
2023/10/25 18:30:05;;;;;;;4.37;4.00;;;13.30;49.60;;;;;;6184951;23;20781;-77
2023/10/25 18:32:32;;;;;;;4.80;4.50;;;13.30;50.40;;;;;;6184912;23;20376;-76
2023/10/25 18:35:00;;;;;;;4.73;4.53;;;13.30;50.00;;;;;;6185070;23;20382;-77
2023/10/25 18:37:27;;;;;;;5.47;5.17;;;13.40;49.60;;;;;;6184916;23;20395;-76
2023/10/25 18:39:56;;;;;;;6.20;5.80;;;13.40;47.80;;;;;;6184016;23;20435;-76
2023/10/25 18:42:22;;;;;;;8.60;8.00;;;13.50;45.90;;;;;;6184705;23;20428;-76
2023/10/25 18:44:53;;;;;;;5.07;4.70;;;13.60;46.00;;;;;;6184882;23;20369;-76
2023/10/25 18:47:18;;;;;;;5.90;5.60;;;13.60;46.30;;;;;;6159186;23;20416;-77
2023/10/25 18:49:45;;;;;;;5.30;5.10;;;13.60;45.90;;;;;;6184724;23;20376;-76
2023/10/25 18:52:11;;;;;;;6.60;6.20;;;13.60;43.10;;;;;;6158525;23;20552;-76
2023/10/25 18:54:36;;;;;;;5.80;5.60;;;13.60;43.20;;;;;;6184246;23;20376;-76
2023/10/25 18:57:02;;;;;;;5.67;5.37;;;13.70;41.50;;;;;;6184973;23;20400;-76
2023/10/25 18:59:31;;;;;;;5.30;5.10;;;13.70;40.00;;;;;;6185063;23;20602;-76
2023/10/25 19:01:57;;;;;;;6.00;5.80;;;13.70;39.80;;;;;;6185299;23;20172;-76
2023/10/25 19:04:22;;;;;;;5.67;5.37;;;13.70;40.60;;;;;;6185318;23;20439;-76
2023/10/25 19:06:48;;;;;;;5.57;5.37;;;13.60;39.60;;;;;;6184891;23;20164;-76
2023/10/25 19:09:14;;;;;;;5.93;5.73;;;13.60;40.20;;;;;;6184622;23;20145;-76
2023/10/25 19:11:39;;;;;;;5.40;5.20;;;13.50;40.10;;;;;;6184978;23;20153;-76
2023/10/25 19:14:05;;;;;;;5.30;5.20;;;13.50;39.70;;;;;;6158568;23;20156;-75
2023/10/25 19:16:30;;;;;;;4.83;4.73;;;13.50;38.60;;;;;;6185603;23;20507;-76
2023/10/25 19:18:56;;;;;;;5.30;5.10;;;13.40;38.50;;;;;;6185172;23;20180;-75
2023/10/25 19:21:23;;;;;;;5.27;5.07;;;13.40;39.30;;;;;;6183929;23;20157;-76
2023/10/25 19:23:54;;;;;;;5.27;5.07;;;13.40;38.10;;;;;;6159092;23;20424;-77
2023/10/25 19:26:23;;;;;;;5.20;5.00;;;13.30;38.70;;;;;;6184778;23;20874;-75
2023/10/25 19:28:49;;;;;;;5.73;5.53;;;13.30;39.00;;;;;;6157766;23;20407;-75
2023/10/25 19:31:14;;;;;;;5.00;4.90;;;13.40;39.60;;;;;;6157882;23;20388;-75
2023/10/25 19:33:40;;;;;;;5.50;5.20;;;13.30;39.30;;;;;;6184163;23;20153;-76
2023/10/25 19:36:06;;;;;;;4.97;4.73;;;13.40;39.80;;;;;;6184119;23;20211;-75
2023/10/25 19:38:32;;;;;;;5.20;5.10;;;13.40;38.80;;;;;;6184490;23;20149;-75
2023/10/25 19:40:57;;;;;;;5.30;5.10;;;13.40;38.70;;;;;;6184574;23;20379;-75
2023/10/25 19:43:23;;;;;;;5.33;5.13;;;13.40;38.10;;;;;;6184361;23;20180;-75
2023/10/25 19:45:49;;;;;;;5.23;5.03;;;13.40;38.00;;;;;;6184376;23;20145;-77
2023/10/25 19:48:14;;;;;;;5.67;5.47;;;13.30;38.70;;;;;;6183986;23;20172;-77
2023/10/25 19:50:40;;;;;;;5.73;5.53;;;13.30;38.20;;;;;;6184439;23;20587;-76
2023/10/25 19:53:05;;;;;;;5.33;5.13;;;13.30;38.50;;;;;;6181614;23;20498;-76
2023/10/25 19:55:31;;;;;;;6.17;5.77;;;13.40;38.20;;;;;;6157505;23;20723;-77
2023/10/25 19:57:57;;;;;;;5.27;5.07;;;13.40;37.90;;;;;;6182995;23;20172;-77
2023/10/25 20:00:23;;;;;;;5.40;5.17;;;13.40;38.40;;;;;;6182678;23;20510;-76
2023/10/25 20:02:51;;;;;;;5.00;4.80;;;13.40;38.20;;;;;;6182988;23;20336;-76
2023/10/25 20:05:17;;;;;;;5.30;5.10;;;13.40;38.50;;;;;;6183205;23;21015;-76
2023/10/25 20:07:42;;;;;;;5.13;4.93;;;13.40;37.70;;;;;;6156285;23;20487;-76
2023/10/25 20:10:09;;;;;;;5.00;4.80;;;13.40;38.20;;;;;;6182858;23;20271;-76
2023/10/25 20:12:35;;;;;;;5.43;5.27;;;13.40;37.70;;;;;;6183687;23;20148;-75
2023/10/25 20:15:03;;;;;;;5.10;4.90;;;13.40;38.40;;;;;;6183324;23;20381;-76
2023/10/25 20:17:29;;;;;;;5.33;5.03;;;13.40;39.40;;;;;;6182690;23;20169;-76
2023/10/25 20:19:54;;;;;;;5.30;5.10;;;13.40;39.20;;;;;;6156880;23;20709;-79
2023/10/25 20:22:21;;;;;;;4.90;4.70;;;13.50;39.70;;;;;;6185383;23;20251;-76
2023/10/25 20:24:47;;;;;;;4.73;4.53;;;13.70;40.10;;;;;;6184259;23;20235;-76
2023/10/25 20:27:13;;;;;;;5.43;5.23;;;13.60;39.20;;;;;;6157182;23;20801;-76
2023/10/25 20:29:41;;;;;;;4.43;4.23;;;13.50;38.80;;;;;;6184143;23;20381;-76
2023/10/25 20:32:08;;;;;;;5.70;5.30;;;13.50;39.60;;;;;;6184521;23;20269;-76
2023/10/25 20:34:33;;;;;;;5.57;5.27;;;13.50;40.00;;;;;;6186824;23;20832;-77
